createdAt,value
2022-08-08T00:00:52.783Z,8.52
2022-08-08T00:05:43.945Z,8.02
2022-08-08T00:11:12.972Z,7.80
2022-08-08T00:16:12.632Z,8.35
2022-08-08T00:21:16.513Z,8.55
2022-08-08T00:26:13.475Z,8.05
2022-08-08T00:32:28.573Z,9.13
2022-08-08T00:36:35.262Z,8.88
2022-08-08T00:41:55.104Z,8.55
2022-08-08T00:48:05.333Z,8.05
2022-08-08T00:53:29.331Z,8.57
2022-08-08T00:58:54.109Z,7.95
2022-08-08T01:04:29.837Z,6.88
2022-08-08T01:09:41.327Z,7.22
2022-08-08T01:15:09.978Z,7.25
2022-08-08T01:20:25.782Z,6.75
2022-08-08T01:25:40.886Z,5.63
2022-08-08T01:32:13.134Z,6.63
2022-08-08T01:36:54.943Z,5.60
2022-08-08T01:41:58.465Z,5.68
2022-08-08T01:47:05.907Z,5.22
2022-08-08T01:53:28.810Z,6.00
2022-08-08T01:58:11.979Z,5.50
2022-08-08T02:03:54.871Z,5.57
2022-08-08T02:08:39.891Z,8.20
2022-08-08T02:13:55.947Z,10.25
2022-08-08T02:19:10.044Z,10.13
2022-08-08T02:24:27.353Z,8.02
2022-08-08T02:29:56.436Z,7.97
2022-08-08T02:35:07.988Z,7.95
2022-08-08T02:40:20.968Z,8.77
2022-08-08T02:45:51.719Z,10.88
2022-08-08T02:51:00.755Z,9.52
2022-08-08T02:56:05.721Z,11.85
2022-08-08T03:01:39.675Z,7.85
2022-08-08T03:06:54.644Z,8.20
2022-08-08T03:12:08.139Z,7.80
2022-08-08T03:17:21.866Z,7.68
2022-08-08T03:22:38.342Z,7.43
2022-08-08T03:28:02.461Z,7.43
2022-08-08T03:33:55.960Z,7.18
2022-08-08T03:38:57.288Z,7.03
2022-08-08T03:43:56.754Z,6.95
2022-08-08T03:49:56.501Z,5.90
2022-08-08T03:54:41.208Z,7.40
2022-08-08T03:59:31.581Z,7.20
2022-08-08T04:04:30.716Z,7.53
2022-08-08T04:09:26.780Z,7.07
2022-08-08T04:14:34.806Z,7.70
2022-08-08T04:19:36.761Z,7.50
2022-08-08T04:24:31.794Z,7.15
2022-08-08T04:29:36.638Z,8.90
2022-08-08T04:34:49.259Z,7.75
2022-08-08T04:40:05.869Z,8.38
2022-08-08T04:45:04.288Z,7.05
2022-08-08T04:50:01.197Z,7.05
2022-08-08T04:55:02.452Z,6.72
2022-08-08T04:59:59.610Z,7.28
2022-08-08T05:04:54.132Z,9.13
2022-08-08T05:09:54.730Z,8.13
2022-08-08T05:14:49.075Z,9.40
2022-08-08T05:20:09.271Z,7.80
2022-08-08T05:25:03.158Z,5.28
2022-08-08T05:29:57.192Z,6.30
2022-08-08T05:34:53.871Z,5.85
2022-08-08T05:39:54.733Z,6.32
2022-08-08T05:44:51.630Z,7.32
2022-08-08T05:49:55.956Z,7.90
2022-08-08T05:54:55.739Z,9.90
2022-08-08T06:00:01.284Z,8.10
2022-08-08T06:05:24.518Z,7.75
2022-08-08T06:10:32.749Z,4.68
2022-08-08T06:15:50.153Z,4.60
2022-08-08T06:20:40.959Z,5.40
2022-08-08T06:26:34.934Z,5.38
2022-08-08T06:30:56.201Z,5.43
2022-08-08T06:36:07.128Z,5.50
2022-08-08T06:41:15.344Z,5.70
2022-08-08T06:46:12.724Z,6.28
2022-08-08T06:51:09.249Z,7.53
2022-08-08T06:56:04.460Z,6.38
2022-08-08T07:01:24.340Z,8.75
2022-08-08T07:06:17.558Z,8.07
2022-08-08T07:11:22.692Z,7.82
2022-08-08T07:16:29.120Z,6.72
2022-08-08T07:21:25.140Z,6.78
2022-08-08T07:26:35.097Z,6.15
2022-08-08T07:31:36.714Z,6.22
2022-08-08T07:36:34.761Z,5.75
2022-08-08T07:41:30.082Z,7.70
2022-08-08T07:46:46.725Z,7.50
2022-08-08T07:51:53.271Z,5.57
2022-08-08T07:57:36.334Z,5.15
2022-08-08T08:02:57.004Z,6.25
2022-08-08T08:07:54.622Z,4.75
2022-08-08T08:13:25.898Z,6.20
2022-08-08T08:18:56.041Z,9.80
2022-08-08T08:23:54.651Z,9.77
2022-08-08T08:28:57.980Z,8.85
2022-08-08T08:33:52.820Z,8.77
2022-08-08T08:38:49.496Z,7.68
2022-08-08T08:43:51.991Z,7.43
2022-08-08T08:48:49.082Z,8.05
2022-08-08T08:53:58.880Z,8.38
2022-08-08T09:04:00.316Z,8.00
2022-08-08T09:09:18.764Z,7.72
2022-08-08T09:14:28.382Z,6.82
2022-08-08T09:22:02.126Z,6.63
2022-08-08T09:24:40.693Z,7.00
2022-08-08T09:30:00.228Z,6.97
2022-08-08T09:34:56.882Z,6.90
2022-08-08T09:40:01.502Z,5.65
2022-08-08T09:45:15.566Z,7.88
2022-08-08T09:50:21.171Z,5.85
2022-08-08T09:55:17.444Z,5.95
2022-08-08T10:00:49.817Z,5.38
2022-08-08T10:05:46.685Z,5.93
2022-08-08T10:10:50.085Z,6.30
2022-08-08T10:16:00.223Z,5.50
2022-08-08T10:21:00.620Z,5.38
2022-08-08T10:25:58.255Z,5.38
2022-08-08T10:31:00.755Z,4.35
2022-08-08T10:36:09.110Z,4.97
2022-08-08T10:41:17.336Z,4.95
2022-08-08T10:46:31.565Z,5.10
2022-08-08T10:51:26.423Z,5.77
2022-08-08T10:56:27.517Z,4.30
2022-08-08T11:01:33.569Z,4.50
2022-08-08T11:06:34.627Z,4.10
2022-08-08T11:11:59.676Z,4.20
2022-08-08T11:16:46.742Z,3.17
2022-08-08T11:21:41.781Z,3.35
2022-08-08T11:26:56.733Z,4.95
2022-08-08T11:31:53.302Z,3.80
2022-08-08T11:36:51.057Z,3.08
2022-08-08T11:41:46.744Z,2.72
2022-08-08T11:46:45.124Z,3.20
2022-08-08T11:51:50.532Z,3.42
2022-08-08T11:56:47.063Z,3.10
2022-08-08T12:01:51.222Z,3.80
2022-08-08T12:06:49.791Z,3.72
2022-08-08T12:11:44.030Z,3.33
2022-08-08T12:16:49.479Z,3.38
2022-08-08T12:22:00.452Z,4.07
2022-08-08T12:26:59.991Z,3.40
2022-08-08T12:32:09.626Z,3.50
2022-08-08T12:37:40.472Z,3.90
2022-08-08T12:42:48.540Z,3.60
2022-08-08T12:48:04.414Z,3.00
2022-08-08T12:52:56.646Z,3.20
2022-08-08T12:57:56.469Z,3.20
2022-08-08T13:08:02.146Z,3.35
2022-08-08T13:13:06.062Z,3.22
2022-08-08T13:18:11.582Z,3.67
2022-08-08T13:23:30.912Z,3.53
2022-08-08T13:28:32.441Z,3.03
2022-08-08T13:33:26.712Z,4.35
2022-08-08T13:38:40.117Z,3.53
2022-08-08T13:43:34.525Z,3.28
2022-08-08T13:48:29.589Z,3.28
2022-08-08T13:53:34.273Z,2.88
2022-08-08T13:58:30.699Z,3.28
2022-08-08T14:03:53.920Z,3.03
2022-08-08T14:08:47.909Z,3.00
2022-08-08T14:14:00.396Z,3.13
2022-08-08T14:19:00.951Z,3.10
2022-08-08T14:24:06.984Z,2.97
2022-08-08T14:29:26.702Z,3.10
2022-08-08T14:34:27.852Z,3.30
2022-08-08T14:39:25.013Z,2.97
2022-08-08T14:44:24.947Z,2.95
2022-08-08T14:49:51.367Z,3.25
2022-08-08T14:54:49.314Z,3.15
2022-08-08T14:59:44.321Z,4.07
2022-08-08T15:04:45.579Z,3.05
2022-08-08T15:09:39.351Z,3.58
2022-08-08T15:14:33.426Z,3.45
2022-08-08T15:19:27.765Z,3.78
2022-08-08T15:24:21.965Z,3.60
2022-08-08T15:29:26.004Z,3.40
2022-08-08T15:34:31.766Z,3.20
2022-08-08T15:39:25.974Z,3.30
2022-08-08T15:44:19.681Z,3.47
2022-08-08T15:49:12.635Z,3.38
2022-08-08T15:54:18.342Z,3.17
2022-08-08T16:00:18.005Z,3.80
2022-08-08T16:04:38.013Z,4.38
2022-08-08T16:13:04.200Z,3.88
2022-08-08T16:14:53.554Z,3.40
2022-08-08T16:20:00.129Z,3.58
2022-08-08T16:24:55.821Z,3.92
2022-08-08T16:30:08.150Z,3.92
2022-08-08T16:35:03.984Z,3.40
2022-08-08T16:40:00.489Z,3.90
2022-08-08T16:44:59.705Z,4.10
2022-08-08T16:50:01.566Z,3.50
2022-08-08T16:55:34.357Z,3.30
2022-08-08T17:00:11.991Z,4.15
2022-08-08T17:05:21.271Z,3.88
2022-08-08T17:10:16.930Z,3.92
2022-08-08T17:15:20.427Z,3.33
2022-08-08T17:20:15.353Z,3.50
2022-08-08T17:25:12.044Z,3.40
2022-08-08T17:30:08.491Z,3.67
2022-08-08T17:35:56.375Z,3.58
2022-08-08T17:40:17.720Z,4.35
2022-08-08T17:45:22.299Z,3.25
2022-08-08T17:50:17.944Z,4.22
2022-08-08T17:56:05.300Z,3.30
2022-08-08T18:00:31.056Z,3.42
2022-08-08T18:05:29.908Z,3.50
2022-08-08T18:10:43.731Z,3.47
2022-08-08T18:15:38.637Z,4.78
2022-08-08T18:20:43.990Z,4.90
2022-08-08T18:25:46.262Z,3.78
2022-08-08T18:30:39.382Z,4.40
2022-08-08T18:35:41.794Z,3.80
2022-08-08T18:40:45.564Z,4.20
2022-08-08T18:46:00.272Z,4.05
2022-08-08T18:50:58.595Z,4.13
2022-08-08T18:55:53.168Z,3.97
2022-08-08T19:00:50.167Z,4.25
2022-08-08T19:05:48.630Z,4.47
2022-08-08T19:10:44.729Z,4.00
2022-08-08T19:15:39.456Z,4.30
2022-08-08T19:20:34.261Z,4.40
2022-08-08T19:26:26.865Z,4.47
2022-08-08T19:30:42.356Z,4.97
2022-08-08T19:36:07.923Z,4.47
2022-08-08T19:41:05.211Z,5.32
2022-08-08T19:46:01.091Z,5.25
2022-08-08T19:50:55.220Z,5.90
2022-08-08T19:55:48.917Z,4.82
2022-08-08T20:00:46.132Z,5.25
2022-08-08T20:06:15.243Z,4.97
2022-08-08T20:11:01.160Z,4.93
2022-08-08T20:16:01.068Z,5.78
2022-08-08T20:20:55.475Z,6.07
2022-08-08T20:25:50.357Z,6.85
2022-08-08T20:30:55.989Z,6.10
2022-08-08T20:35:58.091Z,5.00
2022-08-08T20:40:55.867Z,5.70
2022-08-08T20:45:57.715Z,5.78
2022-08-08T20:50:57.818Z,5.57
2022-08-08T20:55:52.612Z,4.80
2022-08-08T21:00:46.427Z,5.30
2022-08-08T21:05:49.250Z,4.93
2022-08-08T21:10:52.732Z,5.53
2022-08-08T21:16:04.053Z,5.25
2022-08-08T21:21:02.899Z,5.10
2022-08-08T21:26:00.082Z,5.10
2022-08-08T21:30:56.014Z,4.95
2022-08-08T21:36:16.577Z,4.93
2022-08-08T21:41:05.817Z,5.15
2022-08-08T21:48:05.838Z,4.80
2022-08-08T21:51:16.658Z,4.80
2022-08-08T21:56:36.059Z,5.28
2022-08-08T22:01:40.652Z,4.70
2022-08-08T22:06:35.415Z,5.60
2022-08-08T22:12:03.013Z,5.72
2022-08-08T22:16:46.805Z,5.50
2022-08-08T22:21:45.501Z,4.20
2022-08-08T22:27:02.037Z,4.65
2022-08-08T22:31:58.392Z,4.38
2022-08-08T22:36:56.951Z,5.13
2022-08-08T22:41:50.620Z,4.40
2022-08-08T22:46:46.074Z,5.30
2022-08-08T22:51:42.851Z,4.10
2022-08-08T22:56:40.468Z,4.65
2022-08-08T23:02:02.011Z,4.90
2022-08-08T23:07:02.694Z,4.82
2022-08-08T23:12:28.675Z,4.97
2022-08-08T23:17:11.681Z,4.00
2022-08-08T23:22:11.141Z,4.57
2022-08-08T23:27:07.143Z,4.75
2022-08-08T23:32:04.687Z,4.68
2022-08-08T23:36:58.726Z,5.10
2022-08-08T23:41:55.630Z,5.10
2022-08-08T23:49:00.924Z,4.43
2022-08-08T23:52:08.800Z,5.00
2022-08-08T23:57:03.705Z,4.97
